Time;durP1;ratioP1;P1;durP2;ratioP2;P2;SDS_P1;SDS_P2;PMS_P1;PMS_P2;Temp;Humidity;BMP_temperature;BMP_pressure;BME280_temperature;BME280_humidity;BME280_pressure;Samples;Min_cycle;Max_cycle;Signal;HPM_P1;HPM_P2
2022/10/14 00:01:35;;;;;;;0.00;0.00;;;13.90;99.90;;;;;;5010048;28;20044;-84
2022/10/14 00:04:02;;;;;;;0.00;0.00;;;14.40;99.90;;;;;;5032847;28;20045;-82
2022/10/14 00:06:30;;;;;;;0.00;0.00;;;14.20;99.90;;;;;;5012861;28;20047;-83
2022/10/14 00:08:59;;;;;;;0.00;0.00;;;13.80;99.90;;;;;;5032099;28;20041;-82
2022/10/14 00:11:28;;;;;;;0.00;0.00;;;13.80;99.90;;;;;;5010508;28;20604;-82
2022/10/14 00:13:57;;;;;;;0.00;0.00;;;13.90;99.90;;;;;;5028765;28;20498;-82
2022/10/14 00:16:26;;;;;;;0.00;0.00;;;13.80;99.90;;;;;;5026536;28;20045;-82
2022/10/14 00:18:55;;;;;;;0.00;0.00;;;13.80;99.90;;;;;;5032539;28;20493;-82
2022/10/14 00:21:22;;;;;;;0.00;0.00;;;;;;;;;;5008301;28;20490;-83
2022/10/14 00:23:49;;;;;;;0.00;0.00;;;13.80;99.90;;;;;;5019936;28;20412;-83
2022/10/14 00:26:18;;;;;;;0.00;0.00;;;13.90;99.90;;;;;;5030679;28;20053;-83
2022/10/14 00:28:45;;;;;;;0.00;0.00;;;13.90;99.90;;;;;;5029775;28;20041;-82
2022/10/14 00:31:14;;;;;;;0.00;0.00;;;14.00;99.90;;;;;;5009033;28;20312;-82
2022/10/14 00:33:40;;;;;;;0.00;0.00;;;14.00;99.90;;;;;;5014279;28;20045;-82
2022/10/14 00:36:11;;;;;;;0.00;0.00;;;14.00;99.90;;;;;;5014995;28;20128;-83
2022/10/14 00:38:38;;;;;;;0.00;0.00;;;14.00;99.90;;;;;;5015648;28;20413;-82
2022/10/14 00:41:07;;;;;;;0.00;0.00;;;14.00;99.90;;;;;;5028752;28;20048;-83
2022/10/14 00:43:55;;;;;;;0.00;0.00;;;14.00;99.90;;;;;;5013896;28;20535;-83
2022/10/14 00:46:22;;;;;;;0.00;0.00;;;13.90;99.90;;;;;;5011928;28;20437;-83
2022/10/14 00:48:50;;;;;;;0.00;0.00;;;13.90;99.90;;;;;;5033681;28;20087;-84
2022/10/14 00:51:18;;;;;;;0.00;0.00;;;13.90;99.90;;;;;;5027252;28;20428;-82
2022/10/14 00:53:46;;;;;;;0.00;0.00;;;13.90;99.90;;;;;;5029793;28;20045;-83
2022/10/14 00:56:16;;;;;;;0.00;0.00;;;14.30;99.90;;;;;;5010328;28;20048;-83
2022/10/14 00:58:44;;;;;;;0.00;0.00;;;14.00;99.90;;;;;;5026252;28;20413;-83
2022/10/14 01:01:11;;;;;;;0.00;0.00;;;14.00;99.90;;;;;;5006118;28;20044;-84
2022/10/14 01:03:39;;;;;;;0.00;0.00;;;14.00;99.90;;;;;;5012709;28;20123;-83
2022/10/14 01:06:18;;;;;;;0.00;0.00;;;14.00;99.90;;;;;;5005272;28;20497;-82
2022/10/14 01:08:55;;;;;;;0.00;0.00;;;14.00;99.90;;;;;;5005819;28;20120;-82
2022/10/14 01:11:33;;;;;;;0.00;0.00;;;14.00;99.90;;;;;;5011209;28;20405;-82
2022/10/14 01:14:09;;;;;;;0.00;0.00;;;14.00;99.90;;;;;;5022439;28;20049;-82
2022/10/14 01:16:45;;;;;;;0.00;0.00;;;14.00;99.90;;;;;;5025706;28;20037;-81
2022/10/14 01:19:31;;;;;;;0.00;0.00;;;14.00;99.90;;;;;;5021674;28;20041;-83
2022/10/14 01:22:03;;;;;;;0.00;0.00;;;13.90;99.90;;;;;;5024943;28;20041;-83
2022/10/14 01:24:54;;;;;;;0.00;0.00;;;14.00;99.90;;;;;;5026823;28;20052;-82
2022/10/14 01:27:43;;;;;;;0.00;0.00;;;14.00;99.90;;;;;;5021930;28;20047;-82
2022/10/14 01:30:16;;;;;;;0.00;0.00;;;13.90;99.90;;;;;;5006625;28;21645;-82
2022/10/14 01:33:06;;;;;;;0.03;0.03;;;13.90;99.90;;;;;;5007931;28;20052;-83
2022/10/14 01:35:45;;;;;;;0.00;0.00;;;14.00;99.90;;;;;;5028030;28;20067;-83
2022/10/14 01:40:57;;;;;;;0.00;0.00;;;13.90;99.90;;;;;;4363806;22;20115;-83
2022/10/14 01:43:26;;;;;;;0.00;0.00;;;13.90;99.90;;;;;;5040707;28;20077;-81
2022/10/14 01:45:57;;;;;;;0.00;0.00;;;14.40;99.90;;;;;;5042902;28;20051;-83
2022/10/14 01:48:30;;;;;;;0.00;0.00;;;13.90;99.90;;;;;;5042620;28;20505;-83
2022/10/14 01:50:59;;;;;;;0.00;0.00;;;13.90;99.90;;;;;;5026377;28;20047;-82
2022/10/14 01:53:31;;;;;;;0.00;0.00;;;13.80;99.90;;;;;;5034529;28;20489;-81
2022/10/14 01:56:00;;;;;;;0.00;0.00;;;13.80;99.90;;;;;;5026132;28;20398;-83
2022/10/14 01:58:30;;;;;;;0.00;0.00;;;13.70;99.90;;;;;;5024641;28;20041;-81
2022/10/14 02:01:01;;;;;;;0.00;0.00;;;13.70;99.90;;;;;;5046705;28;20094;-82
2022/10/14 02:03:37;;;;;;;0.00;0.00;;;13.70;99.90;;;;;;5041576;28;20060;-81
2022/10/14 02:06:08;;;;;;;0.00;0.00;;;13.70;99.90;;;;;;5031265;28;20062;-84
2022/10/14 02:08:46;;;;;;;0.08;0.08;;;13.80;99.90;;;;;;5045295;28;20063;-81
2022/10/14 02:11:16;;;;;;;0.00;0.00;;;13.80;99.90;;;;;;5027363;28;20505;-83
2022/10/14 02:14:04;;;;;;;0.00;0.00;;;13.80;99.90;;;;;;5047614;28;20049;-83
2022/10/14 02:16:37;;;;;;;0.00;0.00;;;13.80;99.90;;;;;;5037743;28;20492;-82
2022/10/14 02:19:16;;;;;;;0.00;0.00;;;13.80;99.90;;;;;;5038685;28;20049;-82
2022/10/14 02:21:47;;;;;;;0.00;0.00;;;13.70;99.90;;;;;;5047703;28;20047;-83
2022/10/14 02:24:19;;;;;;;0.00;0.00;;;13.70;99.90;;;;;;5047159;28;20037;-83
2022/10/14 02:26:48;;;;;;;0.00;0.00;;;13.70;99.90;;;;;;5025649;28;20079;-82
2022/10/14 02:29:17;;;;;;;0.00;0.00;;;13.90;99.90;;;;;;5048010;28;20080;-83
2022/10/14 02:31:46;;;;;;;0.00;0.00;;;14.80;99.90;;;;;;5025209;28;20045;-82
2022/10/14 02:34:18;;;;;;;0.00;0.00;;;13.60;99.90;;;;;;5042423;28;20433;-82
2022/10/14 02:36:46;;;;;;;0.00;0.00;;;13.60;99.90;;;;;;5038013;28;20082;-83
2022/10/14 02:39:20;;;;;;;0.00;0.00;;;13.60;99.90;;;;;;5049696;28;20048;-82
2022/10/14 02:41:47;;;;;;;0.00;0.00;;;13.60;99.90;;;;;;5030202;28;20404;-83
2022/10/14 02:44:14;;;;;;;0.00;0.00;;;;;;;;;;5048226;28;20428;-83
2022/10/14 02:46:42;;;;;;;0.00;0.00;;;13.50;99.90;;;;;;5044537;28;20115;-83
2022/10/14 02:49:10;;;;;;;0.00;0.00;;;13.50;99.90;;;;;;5039969;28;20044;-84
2022/10/14 02:51:37;;;;;;;0.00;0.00;;;15.60;99.90;;;;;;5034949;28;20515;-82
2022/10/14 02:54:04;;;;;;;0.00;0.00;;;13.50;99.90;;;;;;5045131;28;20049;-82
2022/10/14 02:56:31;;;;;;;0.00;0.00;;;13.50;99.90;;;;;;5033977;28;20049;-83
2022/10/14 02:58:58;;;;;;;0.00;0.00;;;13.50;99.90;;;;;;5048486;28;20041;-83
2022/10/14 03:01:25;;;;;;;0.00;0.00;;;13.50;99.90;;;;;;5050474;28;20103;-83
2022/10/14 03:03:52;;;;;;;0.00;0.00;;;13.60;99.90;;;;;;5025707;28;20056;-83
2022/10/14 03:06:20;;;;;;;0.00;0.00;;;13.60;99.90;;;;;;5048530;28;20037;-83
2022/10/14 03:08:47;;;;;;;0.00;0.00;;;13.50;99.90;;;;;;5032093;28;20041;-83
2022/10/14 03:11:13;;;;;;;0.00;0.00;;;13.70;99.90;;;;;;5031622;28;20044;-83
2022/10/14 03:13:40;;;;;;;0.00;0.00;;;13.60;99.90;;;;;;5042913;28;20048;-82
2022/10/14 03:16:07;;;;;;;0.03;0.03;;;13.60;99.90;;;;;;5048586;28;20033;-82
2022/10/14 03:18:34;;;;;;;0.00;0.00;;;13.60;99.90;;;;;;5044481;28;20065;-83
2022/10/14 03:21:01;;;;;;;0.00;0.00;;;13.80;99.90;;;;;;5049593;28;20062;-83
2022/10/14 03:23:29;;;;;;;0.00;0.00;;;13.60;99.90;;;;;;5035802;28;20041;-83
2022/10/14 03:25:56;;;;;;;0.00;0.00;;;13.60;99.90;;;;;;5049167;28;20154;-83
2022/10/14 03:28:23;;;;;;;0.00;0.00;;;13.50;99.90;;;;;;5046650;28;20055;-83
2022/10/14 03:30:49;;;;;;;0.00;0.00;;;13.50;99.90;;;;;;5032673;28;20045;-83
2022/10/14 03:33:16;;;;;;;0.00;0.00;;;13.60;99.90;;;;;;5050388;28;20139;-83
2022/10/14 03:35:46;;;;;;;0.00;0.00;;;13.70;99.90;;;;;;5047802;28;20049;-83
2022/10/14 03:38:13;;;;;;;0.00;0.00;;;13.60;99.90;;;;;;5049461;28;20060;-83
2022/10/14 03:40:41;;;;;;;0.00;0.00;;;13.50;99.90;;;;;;5028455;28;21423;-83
2022/10/14 03:43:08;;;;;;;0.00;0.00;;;13.60;99.90;;;;;;5049198;28;20036;-83
2022/10/14 03:45:34;;;;;;;0.00;0.00;;;14.00;99.90;;;;;;5035147;28;20036;-80
2022/10/14 03:48:01;;;;;;;0.00;0.00;;;13.60;99.90;;;;;;5027475;28;20048;-83
2022/10/14 03:50:28;;;;;;;0.00;0.00;;;13.60;99.90;;;;;;5028337;28;20048;-83
2022/10/14 03:52:55;;;;;;;0.00;0.00;;;13.60;99.90;;;;;;5049522;28;20057;-83
2022/10/14 03:55:23;;;;;;;0.00;0.00;;;13.60;99.90;;;;;;5052911;28;20052;-83
2022/10/14 03:57:51;;;;;;;0.00;0.00;;;13.60;99.90;;;;;;5033616;28;20049;-83
2022/10/14 04:00:18;;;;;;;0.00;0.00;;;13.60;99.90;;;;;;5046712;28;20119;-83
2022/10/14 04:02:45;;;;;;;0.00;0.00;;;13.60;99.90;;;;;;5046522;28;20083;-82
2022/10/14 04:05:12;;;;;;;0.00;0.00;;;13.50;99.90;;;;;;5026965;28;20033;-83
2022/10/14 04:07:39;;;;;;;0.00;0.00;;;13.40;99.90;;;;;;5033511;28;20045;-83
2022/10/14 04:10:07;;;;;;;0.00;0.00;;;13.40;99.90;;;;;;5023774;28;20408;-83
2022/10/14 04:12:34;;;;;;;0.00;0.00;;;13.40;99.90;;;;;;5048227;28;20047;-83
2022/10/14 04:15:02;;;;;;;0.00;0.00;;;13.40;99.90;;;;;;5030376;28;20103;-83
2022/10/14 04:17:29;;;;;;;0.00;0.00;;;13.40;99.90;;;;;;5028906;28;20036;-83
2022/10/14 04:19:56;;;;;;;0.00;0.00;;;13.60;99.90;;;;;;5043074;28;20040;-81
2022/10/14 04:22:22;;;;;;;0.00;0.00;;;13.40;99.90;;;;;;5049717;28;20073;-83
2022/10/14 04:24:50;;;;;;;0.00;0.00;;;13.40;99.90;;;;;;5045222;28;20030;-82
2022/10/14 04:27:17;;;;;;;0.00;0.00;;;13.40;99.90;;;;;;5045296;28;20040;-83
2022/10/14 04:29:44;;;;;;;0.00;0.00;;;13.50;99.90;;;;;;5045063;28;20033;-83
2022/10/14 04:32:12;;;;;;;0.00;0.00;;;13.50;99.90;;;;;;5046121;28;20067;-82
2022/10/14 04:34:39;;;;;;;0.00;0.00;;;13.50;99.90;;;;;;5028452;28;20055;-82
2022/10/14 04:37:06;;;;;;;0.00;0.00;;;13.70;99.90;;;;;;5045808;28;20040;-82
2022/10/14 04:39:33;;;;;;;0.00;0.00;;;;;;;;;;5048778;28;20045;-83
2022/10/14 04:42:00;;;;;;;0.00;0.00;;;13.50;99.90;;;;;;5028114;28;20045;-84
2022/10/14 04:44:27;;;;;;;0.00;0.00;;;;;;;;;;5047111;28;20063;-83
2022/10/14 04:46:54;;;;;;;0.00;0.00;;;;;;;;;;5040853;28;20048;-83
2022/10/14 04:49:23;;;;;;;0.00;0.00;;;13.50;99.90;;;;;;5049360;28;20067;-82
2022/10/14 04:51:50;;;;;;;0.00;0.00;;;13.50;99.90;;;;;;5044412;28;20037;-83
2022/10/14 04:54:17;;;;;;;0.00;0.00;;;13.60;99.90;;;;;;5032367;28;20060;-83
2022/10/14 04:56:43;;;;;;;0.03;0.03;;;13.60;99.90;;;;;;5043798;28;20047;-83
2022/10/14 04:59:12;;;;;;;0.00;0.00;;;13.60;99.90;;;;;;5034252;28;20036;-82
2022/10/14 05:01:39;;;;;;;0.00;0.00;;;;;;;;;;5043379;28;20529;-83
2022/10/14 05:04:06;;;;;;;0.00;0.00;;;13.60;99.90;;;;;;5029518;28;20040;-83
2022/10/14 05:06:36;;;;;;;0.00;0.00;;;13.60;99.90;;;;;;5036697;28;20060;-81
2022/10/14 05:09:03;;;;;;;0.00;0.00;;;13.60;99.90;;;;;;5048276;28;20056;-83
2022/10/14 05:11:31;;;;;;;0.00;0.00;;;13.60;99.90;;;;;;5047132;28;20045;-83
2022/10/14 05:13:58;;;;;;;0.00;0.00;;;13.70;99.90;;;;;;5046847;28;20045;-83
2022/10/14 05:16:25;;;;;;;0.00;0.00;;;;;;;;;;5040362;28;20088;-83
2022/10/14 05:18:52;;;;;;;0.00;0.00;;;13.60;99.90;;;;;;5049961;28;20053;-82
2022/10/14 05:21:19;;;;;;;0.00;0.00;;;13.60;99.90;;;;;;5040734;28;20040;-83
2022/10/14 05:23:47;;;;;;;0.00;0.00;;;13.60;99.90;;;;;;5040895;28;20045;-82
2022/10/14 05:26:14;;;;;;;0.00;0.00;;;13.60;99.90;;;;;;5030012;28;20033;-84
2022/10/14 05:28:41;;;;;;;0.00;0.00;;;13.60;99.90;;;;;;5050637;28;20051;-83
2022/10/14 05:31:09;;;;;;;0.00;0.00;;;13.70;99.90;;;;;;5048312;28;20067;-83
2022/10/14 05:33:36;;;;;;;0.00;0.00;;;13.60;99.90;;;;;;5047615;28;20051;-83
2022/10/14 05:36:03;;;;;;;0.00;0.00;;;13.60;99.90;;;;;;5028063;28;20041;-83
2022/10/14 05:38:31;;;;;;;0.00;0.00;;;13.60;99.90;;;;;;5050547;28;20045;-83
2022/10/14 05:40:59;;;;;;;0.00;0.00;;;13.70;99.90;;;;;;5042172;28;20424;-83
2022/10/14 05:43:26;;;;;;;0.00;0.00;;;13.80;99.90;;;;;;5028148;28;20278;-83
2022/10/14 05:45:58;;;;;;;0.00;0.00;;;13.70;99.90;;;;;;5045017;28;20065;-83
2022/10/14 05:48:25;;;;;;;0.00;0.00;;;13.70;99.90;;;;;;5047540;28;20469;-82
2022/10/14 05:50:52;;;;;;;0.00;0.00;;;13.70;99.90;;;;;;5046471;28;20044;-83
2022/10/14 05:53:19;;;;;;;0.00;0.00;;;;;;;;;;5046782;28;20063;-82
2022/10/14 05:55:46;;;;;;;0.00;0.00;;;13.70;99.90;;;;;;5043895;28;20481;-83
2022/10/14 05:58:14;;;;;;;0.00;0.00;;;13.70;99.90;;;;;;5032201;28;20326;-83
2022/10/14 06:00:41;;;;;;;0.00;0.00;;;14.10;99.90;;;;;;5045291;28;20060;-83
2022/10/14 06:03:10;;;;;;;0.00;0.00;;;13.70;99.90;;;;;;5042338;28;20071;-83
2022/10/14 06:05:37;;;;;;;0.00;0.00;;;13.70;99.90;;;;;;5046921;28;20045;-83
2022/10/14 06:08:05;;;;;;;0.00;0.00;;;14.60;99.90;;;;;;5022166;28;20063;-83
2022/10/14 06:10:33;;;;;;;0.00;0.00;;;13.60;99.90;;;;;;5045817;28;20052;-84
2022/10/14 06:13:00;;;;;;;0.00;0.00;;;13.60;99.90;;;;;;5042920;28;20851;-83
2022/10/14 06:15:28;;;;;;;0.00;0.00;;;14.70;99.90;;;;;;5044885;28;20055;-83
2022/10/14 06:17:55;;;;;;;0.00;0.00;;;13.70;99.90;;;;;;5043224;28;20049;-83
2022/10/14 06:20:21;;;;;;;0.00;0.00;;;14.30;99.90;;;;;;5046006;28;20045;-83
2022/10/14 06:22:48;;;;;;;0.00;0.00;;;15.00;99.90;;;;;;5042890;28;20056;-83
2022/10/14 06:25:15;;;;;;;0.00;0.00;;;13.70;99.90;;;;;;5045346;28;20044;-83
2022/10/14 06:27:43;;;;;;;0.00;0.00;;;;;;;;;;5048583;28;20025;-83
2022/10/14 06:30:11;;;;;;;0.00;0.00;;;13.80;99.90;;;;;;5030429;28;20416;-83
2022/10/14 06:32:39;;;;;;;0.00;0.00;;;13.70;99.90;;;;;;5047303;28;20045;-82
2022/10/14 06:35:07;;;;;;;0.00;0.00;;;13.70;99.90;;;;;;5043126;28;20040;-83
2022/10/14 06:37:34;;;;;;;0.00;0.00;;;;;;;;;;5033760;28;20043;-83
2022/10/14 06:40:01;;;;;;;0.00;0.00;;;13.80;99.90;;;;;;5024628;28;20112;-83
2022/10/14 06:42:28;;;;;;;0.00;0.00;;;13.90;99.90;;;;;;5040171;28;20044;-83
2022/10/14 06:44:55;;;;;;;0.00;0.00;;;13.80;99.90;;;;;;5029339;28;20482;-84
2022/10/14 06:47:22;;;;;;;0.00;0.00;;;12.60;99.90;;;;;;5041313;28;20033;-83
2022/10/14 06:49:50;;;;;;;0.00;0.00;;;13.90;99.90;;;;;;5027173;28;20416;-80
2022/10/14 06:52:17;;;;;;;0.00;0.00;;;13.80;99.90;;;;;;5025282;28;20197;-82
2022/10/14 06:54:43;;;;;;;0.00;0.00;;;13.80;99.90;;;;;;5048723;28;20047;-83
2022/10/14 06:57:14;;;;;;;0.00;0.00;;;13.80;99.90;;;;;;5030685;28;20048;-83
2022/10/14 06:59:41;;;;;;;0.00;0.00;;;13.90;99.90;;;;;;5035131;28;20047;-84
2022/10/14 07:02:08;;;;;;;0.00;0.00;;;13.90;99.90;;;;;;5051144;28;20039;-84
2022/10/14 07:04:35;;;;;;;0.00;0.00;;;13.90;99.90;;;;;;5048851;28;20045;-81
2022/10/14 07:07:03;;;;;;;0.00;0.00;;;13.90;99.90;;;;;;5052304;28;20071;-83
2022/10/14 07:09:30;;;;;;;0.00;0.00;;;13.90;99.90;;;;;;5032918;28;20059;-83
2022/10/14 07:11:56;;;;;;;0.00;0.00;;;13.90;99.90;;;;;;5052736;28;20041;-83
2022/10/14 07:14:23;;;;;;;0.00;0.00;;;13.80;99.90;;;;;;5048606;28;20049;-83
2022/10/14 07:16:51;;;;;;;0.00;0.00;;;13.90;99.90;;;;;;5051162;28;20051;-83
2022/10/14 07:19:18;;;;;;;0.00;0.00;;;13.90;99.90;;;;;;5030675;28;20489;-82
2022/10/14 07:21:47;;;;;;;0.00;0.00;;;13.90;99.90;;;;;;5052090;28;20098;-83
2022/10/14 07:24:16;;;;;;;0.00;0.00;;;14.00;99.90;;;;;;5051153;28;20420;-83
2022/10/14 07:26:42;;;;;;;0.00;0.00;;;14.10;99.90;;;;;;5049461;28;20043;-84
2022/10/14 07:29:09;;;;;;;0.00;0.00;;;14.10;99.90;;;;;;5035307;28;20036;-83
2022/10/14 07:31:36;;;;;;;0.00;0.00;;;14.10;99.90;;;;;;5051777;28;20049;-83
2022/10/14 07:34:03;;;;;;;0.00;0.00;;;14.20;99.90;;;;;;5047772;28;20416;-82
2022/10/14 07:36:30;;;;;;;0.00;0.00;;;;;;;;;;5026158;28;20076;-83
2022/10/14 07:38:57;;;;;;;0.00;0.00;;;14.20;99.90;;;;;;5033775;28;20040;-83
2022/10/14 07:41:26;;;;;;;0.00;0.00;;;14.30;99.90;;;;;;5044566;28;20076;-83
2022/10/14 07:44:02;;;;;;;0.00;0.00;;;14.40;99.90;;;;;;5045185;28;20497;-85
2022/10/14 07:46:31;;;;;;;0.00;0.00;;;14.50;99.90;;;;;;5025990;28;20063;-83
2022/10/14 07:48:59;;;;;;;0.00;0.00;;;14.60;99.90;;;;;;5046239;28;20052;-84
2022/10/14 07:51:27;;;;;;;0.00;0.00;;;14.60;99.90;;;;;;5027321;28;20042;-83
2022/10/14 07:53:57;;;;;;;0.00;0.00;;;14.60;99.90;;;;;;5026619;28;20051;-83
2022/10/14 07:56:26;;;;;;;0.00;0.00;;;14.70;99.90;;;;;;5029431;28;20044;-84
2022/10/14 07:58:53;;;;;;;0.00;0.00;;;14.70;99.90;;;;;;5049808;28;20052;-84
2022/10/14 08:01:20;;;;;;;0.00;0.00;;;14.70;99.90;;;;;;5054868;28;20043;-85
2022/10/14 08:03:47;;;;;;;0.00;0.00;;;14.70;99.90;;;;;;5030052;28;20045;-84
2022/10/14 08:06:14;;;;;;;0.00;0.00;;;14.70;99.90;;;;;;5031144;28;20044;-84
2022/10/14 08:08:42;;;;;;;0.00;0.00;;;14.70;99.90;;;;;;5048432;28;20048;-84
2022/10/14 08:11:12;;;;;;;0.00;0.00;;;14.60;99.90;;;;;;5029366;28;20071;-83
2022/10/14 08:13:40;;;;;;;0.00;0.00;;;14.60;99.90;;;;;;5040815;28;20041;-84
2022/10/14 08:16:14;;;;;;;0.00;0.00;;;14.80;99.90;;;;;;5022417;28;20049;-83
2022/10/14 08:18:41;;;;;;;0.00;0.00;;;14.50;99.90;;;;;;5047253;28;20049;-83
2022/10/14 08:21:08;;;;;;;0.00;0.00;;;14.40;99.90;;;;;;5049266;28;20053;-84
2022/10/14 08:23:35;;;;;;;0.00;0.00;;;14.50;99.90;;;;;;5052106;28;20040;-84
2022/10/14 08:26:02;;;;;;;0.00;0.00;;;14.70;99.90;;;;;;5048187;28;20107;-84
2022/10/14 08:28:29;;;;;;;0.00;0.00;;;15.00;99.90;;;;;;5046112;28;20041;-85
2022/10/14 08:30:57;;;;;;;0.00;0.00;;;15.00;99.90;;;;;;5046313;28;20045;-83
2022/10/14 08:33:24;;;;;;;0.00;0.00;;;;;;;;;;5044693;28;20047;-83
2022/10/14 08:35:51;;;;;;;0.00;0.00;;;15.00;99.90;;;;;;5030556;28;20055;-85
2022/10/14 08:38:24;;;;;;;0.00;0.00;;;15.20;99.90;;;;;;5048445;28;20053;-85
2022/10/14 08:41:01;;;;;;;0.00;0.00;;;15.10;99.90;;;;;;5038141;28;20429;-85
2022/10/14 08:43:32;;;;;;;0.00;0.00;;;15.10;99.90;;;;;;5034661;28;20325;-85
2022/10/14 08:46:09;;;;;;;0.00;0.00;;;15.50;99.90;;;;;;5029789;28;20038;-85
2022/10/14 08:48:36;;;;;;;0.00;0.00;;;;;;;;;;5030661;28;20041;-85
2022/10/14 08:51:08;;;;;;;0.00;0.00;;;15.10;99.90;;;;;;5047278;28;20456;-86
2022/10/14 08:53:39;;;;;;;0.00;0.00;;;15.20;99.90;;;;;;5046782;28;20044;-83
2022/10/14 08:56:08;;;;;;;0.00;0.00;;;15.40;99.90;;;;;;5031750;28;20049;-84
2022/10/14 08:58:38;;;;;;;0.00;0.00;;;15.60;99.90;;;;;;5034210;28;20059;-82
2022/10/14 09:01:14;;;;;;;0.00;0.00;;;15.60;99.90;;;;;;5045842;28;20060;-84
2022/10/14 09:03:41;;;;;;;0.00;0.00;;;17.00;99.90;;;;;;5049865;28;20436;-83
2022/10/14 09:06:13;;;;;;;0.00;0.00;;;15.70;99.90;;;;;;5045131;28;20033;-83
2022/10/14 09:08:43;;;;;;;0.00;0.00;;;15.70;99.90;;;;;;5045140;28;20045;-84
2022/10/14 09:11:13;;;;;;;0.00;0.00;;;15.60;99.90;;;;;;5047539;28;20047;-83
2022/10/14 09:13:42;;;;;;;0.00;0.00;;;16.50;99.90;;;;;;5042534;28;20044;-84
2022/10/14 09:16:18;;;;;;;0.00;0.00;;;15.70;99.90;;;;;;5035787;28;20064;-83
2022/10/14 09:18:49;;;;;;;0.00;0.00;;;15.80;99.90;;;;;;5025110;28;20494;-84
2022/10/14 09:21:28;;;;;;;0.00;0.00;;;15.80;99.90;;;;;;5027783;28;20480;-85
2022/10/14 09:24:18;;;;;;;0.00;0.00;;;15.90;99.90;;;;;;5046079;28;20041;-84
2022/10/14 09:26:47;;;;;;;0.00;0.00;;;15.90;99.90;;;;;;5048798;28;20036;-85
2022/10/14 09:29:23;;;;;;;0.00;0.00;;;15.90;99.90;;;;;;5027988;28;20041;-84
2022/10/14 09:31:51;;;;;;;0.00;0.00;;;16.10;99.90;;;;;;5030553;28;20140;-83
2022/10/14 09:34:22;;;;;;;0.00;0.00;;;16.20;99.90;;;;;;5047074;28;20037;-84
2022/10/14 09:36:50;;;;;;;0.00;0.00;;;16.40;99.90;;;;;;5029466;28;20041;-84
2022/10/14 09:39:18;;;;;;;0.00;0.00;;;16.10;99.90;;;;;;5031512;28;20048;-84
2022/10/14 09:41:51;;;;;;;0.00;0.00;;;16.20;99.90;;;;;;5043655;28;20075;-83
2022/10/14 09:44:21;;;;;;;0.00;0.00;;;16.20;99.90;;;;;;5044802;28;20055;-85
2022/10/14 09:46:51;;;;;;;0.00;0.00;;;16.30;99.90;;;;;;5027137;28;20073;-84
2022/10/14 09:49:23;;;;;;;0.00;0.00;;;16.40;99.90;;;;;;5045871;28;20049;-84
2022/10/14 09:51:50;;;;;;;0.00;0.00;;;16.30;99.90;;;;;;5045331;28;20090;-84
2022/10/14 09:54:23;;;;;;;0.00;0.00;;;16.20;99.90;;;;;;5036064;28;20575;-84
2022/10/14 09:56:58;;;;;;;0.00;0.00;;;16.30;99.90;;;;;;5029434;28;20068;-83
2022/10/14 09:59:25;;;;;;;0.00;0.00;;;16.30;99.90;;;;;;5042731;28;20155;-85
2022/10/14 10:01:56;;;;;;;0.00;0.00;;;16.20;99.90;;;;;;5028012;28;20040;-84
2022/10/14 10:04:26;;;;;;;0.00;0.00;;;16.20;99.90;;;;;;5025788;28;20035;-84
2022/10/14 10:06:54;;;;;;;0.00;0.00;;;16.20;99.90;;;;;;5041955;28;20068;-85
2022/10/14 10:09:21;;;;;;;0.00;0.00;;;16.20;99.90;;;;;;5045705;28;20045;-85
2022/10/14 10:11:48;;;;;;;0.00;0.00;;;16.40;99.90;;;;;;5031087;28;20045;-84
2022/10/14 10:14:20;;;;;;;0.00;0.00;;;16.30;99.90;;;;;;5049171;28;20036;-84
2022/10/14 10:16:48;;;;;;;0.00;0.00;;;16.70;99.90;;;;;;5045812;28;20045;-83
2022/10/14 10:19:26;;;;;;;0.00;0.00;;;16.10;99.90;;;;;;5023513;28;20045;-84
2022/10/14 10:21:54;;;;;;;0.00;0.00;;;16.10;99.90;;;;;;5016960;28;20052;-83
2022/10/14 10:24:22;;;;;;;0.00;0.00;;;18.30;99.90;;;;;;5045545;28;20040;-83
2022/10/14 10:26:54;;;;;;;0.00;0.00;;;17.20;99.90;;;;;;5045073;28;21239;-83
2022/10/14 10:29:33;;;;;;;0.00;0.00;;;16.60;99.90;;;;;;5032273;28;20049;-82
2022/10/14 10:32:13;;;;;;;0.00;0.00;;;16.50;99.90;;;;;;5041172;28;20508;-82
2022/10/14 10:34:51;;;;;;;0.00;0.00;;;16.60;99.90;;;;;;5044428;28;20310;-83
2022/10/14 10:37:25;;;;;;;0.00;0.00;;;16.60;99.90;;;;;;5047605;28;20038;-83
2022/10/14 10:40:05;;;;;;;0.00;0.00;;;16.80;99.90;;;;;;5022889;28;20112;-83
2022/10/14 10:42:38;;;;;;;0.00;0.00;;;16.90;99.90;;;;;;5043943;28;20398;-82
2022/10/14 10:45:14;;;;;;;0.00;0.00;;;17.10;99.90;;;;;;5045991;28;20041;-82
2022/10/14 10:47:45;;;;;;;0.00;0.00;;;17.20;99.90;;;;;;5039150;28;20571;-82
2022/10/14 10:50:23;;;;;;;0.00;0.00;;;17.20;99.90;;;;;;5030663;28;20041;-84
2022/10/14 10:53:32;;;;;;;0.00;0.00;;;17.30;99.90;;;;;;5033034;28;20465;-81
2022/10/14 10:56:10;;;;;;;0.00;0.00;;;17.50;99.90;;;;;;5013816;28;20655;-84
2022/10/14 10:58:41;;;;;;;0.00;0.00;;;17.40;99.90;;;;;;5046904;28;20037;-83
2022/10/14 11:01:23;;;;;;;0.00;0.00;;;17.00;99.90;;;;;;5028941;28;20044;-85
2022/10/14 11:04:06;;;;;;;0.00;0.00;;;17.00;99.90;;;;;;5050003;28;20049;-85
2022/10/14 11:12:25;;;;;;;0.00;0.00;;;17.00;99.90;;;;;;5047340;28;20041;-84
2022/10/14 11:15:25;;;;;;;0.00;0.00;;;17.30;99.90;;;;;;5049451;28;20111;-84
2022/10/14 11:17:59;;;;;;;0.00;0.00;;;17.40;99.90;;;;;;5010327;28;20061;-83
2022/10/14 11:20:37;;;;;;;0.00;0.00;;;17.70;99.90;;;;;;5030038;28;20033;-84
2022/10/14 11:23:53;;;;;;;0.00;0.00;;;17.80;99.90;;;;;;5048271;28;20048;-84
2022/10/14 11:26:40;;;;;;;0.00;0.00;;;17.90;99.90;;;;;;5009426;28;20057;-83
2022/10/14 11:29:19;;;;;;;0.00;0.00;;;18.10;99.90;;;;;;5033083;28;20040;-84
2022/10/14 11:31:52;;;;;;;0.05;0.05;;;18.00;99.90;;;;;;5041786;28;20059;-84
2022/10/14 11:34:34;;;;;;;0.00;0.00;;;18.00;99.90;;;;;;5025248;28;20034;-84
2022/10/14 11:37:08;;;;;;;0.00;0.00;;;17.90;99.90;;;;;;5043549;28;20049;-85
2022/10/14 11:39:44;;;;;;;0.00;0.00;;;18.00;99.90;;;;;;5043320;28;20051;-84
2022/10/14 11:42:31;;;;;;;0.00;0.00;;;18.10;99.90;;;;;;5049893;28;20033;-84
2022/10/14 11:45:13;;;;;;;0.00;0.00;;;18.10;99.90;;;;;;5028499;28;20044;-84
2022/10/14 11:47:49;;;;;;;0.00;0.00;;;18.10;99.90;;;;;;5029740;28;20041;-84
2022/10/14 11:50:20;;;;;;;0.00;0.00;;;17.90;99.90;;;;;;5035388;28;20049;-84
2022/10/14 11:52:55;;;;;;;0.00;0.00;;;17.60;99.90;;;;;;5046040;28;20049;-83
2022/10/14 11:55:23;;;;;;;0.00;0.00;;;17.70;99.90;;;;;;5048600;28;20051;-85
2022/10/14 11:57:57;;;;;;;0.00;0.00;;;17.70;99.90;;;;;;5047152;28;20037;-85
2022/10/14 12:00:28;;;;;;;0.00;0.00;;;17.80;99.90;;;;;;5032817;28;20036;-84
2022/10/14 12:03:02;;;;;;;0.00;0.00;;;17.80;99.90;;;;;;5049564;28;20080;-84
2022/10/14 12:05:36;;;;;;;0.00;0.00;;;17.90;99.90;;;;;;5031658;28;20095;-84
2022/10/14 12:08:13;;;;;;;0.00;0.00;;;17.60;99.90;;;;;;5027880;28;20060;-84
2022/10/14 12:10:44;;;;;;;0.00;0.00;;;17.90;99.90;;;;;;5044711;28;20122;-84
2022/10/14 12:13:16;;;;;;;0.00;0.00;;;18.50;99.90;;;;;;5031850;28;20049;-84
2022/10/14 12:15:48;;;;;;;0.00;0.00;;;18.20;99.90;;;;;;5037161;28;20051;-84
2022/10/14 12:18:15;;;;;;;0.00;0.00;;;18.40;99.90;;;;;;5048958;28;20029;-83
2022/10/14 12:20:50;;;;;;;0.00;0.00;;;18.50;99.90;;;;;;5046220;28;20051;-85
2022/10/14 12:23:30;;;;;;;0.00;0.00;;;18.40;99.90;;;;;;5036500;28;20051;-84
2022/10/14 12:26:02;;;;;;;0.00;0.00;;;18.50;99.90;;;;;;5032551;28;20055;-84
2022/10/14 12:28:32;;;;;;;0.00;0.00;;;18.50;99.90;;;;;;5053753;28;20033;-83
2022/10/14 12:31:17;;;;;;;;;;;18.60;99.90;;;;;;5033024;28;20045;-83
2022/10/14 12:34:17;;;;;;;0.00;0.00;;;18.50;99.90;;;;;;5050469;28;19928;-83
2022/10/14 12:36:45;;;;;;;0.00;0.00;;;18.40;99.90;;;;;;5048674;28;20055;-83
2022/10/14 12:39:32;;;;;;;0.00;0.00;;;18.30;99.90;;;;;;5048935;28;20040;-82
2022/10/14 12:42:03;;;;;;;0.00;0.00;;;18.30;99.90;;;;;;5051692;28;20035;-84
2022/10/14 12:44:40;;;;;;;0.00;0.00;;;18.40;99.90;;;;;;5030047;28;20049;-83
2022/10/14 12:47:17;;;;;;;0.00;0.00;;;18.40;99.90;;;;;;5053972;28;20648;-83
2022/10/14 12:49:48;;;;;;;0.00;0.00;;;18.50;99.90;;;;;;5031810;28;20072;-85
2022/10/14 12:52:21;;;;;;;0.00;0.00;;;18.60;99.90;;;;;;5025277;28;20044;-85
2022/10/14 12:54:49;;;;;;;0.00;0.00;;;18.50;99.90;;;;;;5045163;28;20051;-84
2022/10/14 12:57:27;;;;;;;0.00;0.00;;;18.50;99.90;;;;;;5047591;28;20121;-84
2022/10/14 12:59:58;;;;;;;0.00;0.00;;;18.60;99.90;;;;;;5046698;28;20438;-83
2022/10/14 13:02:33;;;;;;;0.00;0.00;;;18.50;99.90;;;;;;5029601;28;20037;-83
2022/10/14 13:05:05;;;;;;;0.00;0.00;;;18.60;99.90;;;;;;5032776;28;20047;-84
2022/10/14 13:07:41;;;;;;;0.00;0.00;;;18.40;99.90;;;;;;5045634;28;20611;-83
2022/10/14 13:10:48;;;;;;;0.00;0.00;;;18.60;99.90;;;;;;5042225;28;20045;-84
2022/10/14 13:13:51;;;;;;;0.00;0.00;;;17.90;99.90;;;;;;5045898;28;20891;-83
2022/10/14 13:17:04;;;;;;;0.00;0.00;;;17.70;99.90;;;;;;5045850;28;20076;-83
2022/10/14 13:19:51;;;;;;;0.00;0.00;;;17.70;99.90;;;;;;5028596;28;20562;-85